Time;durP1;ratioP1;P1;durP2;ratioP2;P2;SDS_P1;SDS_P2;PMS_P1;PMS_P2;Temp;Humidity;BMP_temperature;BMP_pressure;BME280_temperature;BME280_humidity;BME280_pressure;Samples;Min_cycle;Max_cycle;Signal;HPM_P1;HPM_P2
2022/01/27 00:02:39;;;;;;;51.85;16.00;;;;;;;;;;10310405;28;20242;-65
2022/01/27 00:07:44;;;;;;;47.88;16.13;;;;;;;;;;10309723;28;20066;-65
2022/01/27 00:12:46;;;;;;;40.70;15.40;;;;;;;;;;10310243;28;20091;-66
2022/01/27 00:17:57;;;;;;;36.72;14.23;;;;;;;;;;10308432;28;20101;-65
2022/01/27 00:23:01;;;;;;;42.95;15.05;;;;;;;;;;10324897;28;20226;-66
2022/01/27 00:28:05;;;;;;;42.03;14.98;;;;;;;;;;10309293;28;20047;-64
2022/01/27 00:33:08;;;;;;;45.87;15.93;;;;;;;;;;10308981;28;20057;-65
2022/01/27 00:38:12;;;;;;;40.25;14.05;;;;;;;;;;10308733;28;20062;-65
2022/01/27 00:43:15;;;;;;;41.72;15.80;;;;;;;;;;10308587;28;20252;-66
2022/01/27 00:48:18;;;;;;;40.20;16.05;;;;;;;;;;10308883;28;20058;-65
2022/01/27 00:53:38;;;;;;;50.60;16.52;;;;;;;;;;10308137;28;20047;-65
2022/01/27 00:58:50;;;;;;;51.25;16.13;;;;;;;;;;10308658;28;20051;-66
2022/01/27 01:03:56;;;;;;;47.90;16.10;;;;;;;;;;10307766;28;20057;-65
2022/01/27 01:14:45;;;;;;;55.83;17.23;;;;;;;;;;10307979;28;20055;-65
2022/01/27 01:20:01;;;;;;;61.60;17.63;;;;;;;;;;10289187;28;20325;-66
2022/01/27 01:30:45;;;;;;;50.47;16.52;;;;;;;;;;10325818;28;20070;-65
2022/01/27 01:35:49;;;;;;;61.42;17.67;;;;;;;;;;10323506;28;20045;-63
2022/01/27 01:40:56;;;;;;;58.95;17.50;;;;;;;;;;10313821;28;20058;-66
2022/01/27 01:45:59;;;;;;;64.32;18.95;;;;;;;;;;10303847;28;20055;-65
2022/01/27 01:51:03;;;;;;;70.68;19.05;;;;;;;;;;10313867;28;20038;-65
2022/01/27 01:56:07;;;;;;;67.45;19.35;;;;;;;;;;10313272;28;20046;-65
2022/01/27 02:01:09;;;;;;;89.47;21.42;;;;;;;;;;10307878;28;20397;-65
2022/01/27 02:06:19;;;;;;;87.80;23.48;;;;;;;;;;10278605;28;20050;-66
2022/01/27 02:22:06;;;;;;;98.07;24.85;;;;;;;;;;10313181;28;20055;-66
2022/01/27 02:27:08;;;;;;;93.13;22.60;;;;;;;;;;10312926;28;20053;-65
2022/01/27 02:32:11;;;;;;;103.05;25.75;;;;;;;;;;10314270;28;20043;-65
2022/01/27 02:37:15;;;;;;;105.85;26.92;;;;;;;;;;10312606;28;20054;-65
2022/01/27 02:42:25;;;;;;;95.43;25.75;;;;;;;;;;10312004;28;20042;-66
2022/01/27 02:47:28;;;;;;;92.32;25.90;;;;;;;;;;10325909;28;20046;-64
2022/01/27 02:52:31;;;;;;;75.15;22.67;;;;;;;;;;10312212;28;20058;-64
2022/01/27 02:57:34;;;;;;;78.65;22.50;;;;;;;;;;10312530;28;20047;-64
2022/01/27 03:02:37;;;;;;;72.40;21.98;;;;;;;;;;10310459;28;20051;-64
2022/01/27 03:07:40;;;;;;;70.93;21.73;;;;;;;;;;10310868;28;20053;-64
2022/01/27 03:12:46;;;;;;;66.63;20.15;;;;;;;;;;10312340;28;20046;-66
2022/01/27 03:17:48;;;;;;;54.10;17.95;;;;;;;;;;10309857;28;20054;-65
2022/01/27 03:22:52;;;;;;;51.75;17.73;;;;;;;;;;10310146;28;20050;-65
2022/01/27 03:27:55;;;;;;;52.00;18.40;;;;;;;;;;10311329;28;20047;-65
2022/01/27 03:32:57;;;;;;;41.50;15.25;;;;;;;;;;10311059;28;20085;-65
2022/01/27 03:38:01;;;;;;;46.63;17.08;;;;;;;;;;10307592;28;20267;-65
2022/01/27 03:43:06;;;;;;;43.25;16.42;;;;;;;;;;10310716;28;20246;-65
2022/01/27 03:48:08;;;;;;;49.43;18.10;;;;;;;;;;10311473;28;20047;-65
2022/01/27 03:53:12;;;;;;;54.75;18.67;;;;;;;;;;10308577;28;20051;-65
2022/01/27 03:58:15;;;;;;;54.42;19.80;;;;;;;;;;10310655;28;20063;-66
2022/01/27 04:03:19;;;;;;;52.28;19.67;;;;;;;;;;10307283;28;20101;-65
2022/01/27 04:08:25;;;;;;;57.17;21.52;;;;;;;;;;10309421;28;20058;-65
2022/01/27 04:13:27;;;;;;;;;;;;;;;;;;10310637;28;20206;-65
2022/01/27 04:18:29;;;;;;;62.22;22.48;;;;;;;;;;10308766;28;20225;-64
2022/01/27 04:23:33;;;;;;;58.50;20.80;;;;;;;;;;10309251;28;20051;-66
2022/01/27 04:28:37;;;;;;;60.63;21.63;;;;;;;;;;10308817;28;20068;-66
2022/01/27 04:33:40;;;;;;;63.25;22.48;;;;;;;;;;10309214;28;20287;-65
2022/01/27 04:38:50;;;;;;;62.15;21.92;;;;;;;;;;10307371;28;20066;-65
2022/01/27 04:43:58;;;;;;;56.72;22.13;;;;;;;;;;10309892;28;20059;-65
2022/01/27 04:49:03;;;;;;;59.78;22.42;;;;;;;;;;10309760;28;20047;-66
2022/01/27 04:54:08;;;;;;;48.13;20.52;;;;;;;;;;10308940;28;20334;-65
2022/01/27 04:59:16;;;;;;;55.30;22.20;;;;;;;;;;10308832;28;20354;-65
2022/01/27 05:04:21;;;;;;;50.72;20.98;;;;;;;;;;10311410;28;20401;-64
2022/01/27 05:09:25;;;;;;;45.63;20.67;;;;;;;;;;10315090;28;20081;-65
2022/01/27 05:14:27;;;;;;;50.33;22.48;;;;;;;;;;10315954;28;20050;-65
2022/01/27 05:19:29;;;;;;;50.95;21.45;;;;;;;;;;10315461;28;20039;-65
2022/01/27 05:24:34;;;;;;;56.83;24.90;;;;;;;;;;10316087;28;20227;-65
2022/01/27 05:29:36;;;;;;;52.25;23.35;;;;;;;;;;10315414;28;20065;-65
2022/01/27 05:34:39;;;;;;;47.47;21.70;;;;;;;;;;10314496;28;20243;-65
2022/01/27 05:39:43;;;;;;;44.90;20.35;;;;;;;;;;10313399;28;20086;-65
2022/01/27 05:44:45;;;;;;;41.88;18.63;;;;;;;;;;10313579;28;20101;-65
2022/01/27 05:49:48;;;;;;;45.17;18.92;;;;;;;;;;10314148;28;20055;-67
2022/01/27 05:54:52;;;;;;;44.53;20.25;;;;;;;;;;10314736;28;20038;-66
2022/01/27 05:59:55;;;;;;;47.35;19.08;;;;;;;;;;10314384;28;20055;-65
2022/01/27 06:04:57;;;;;;;45.25;19.67;;;;;;;;;;10313310;28;20054;-65
2022/01/27 06:10:01;;;;;;;43.33;19.17;;;;;;;;;;10314021;28;20063;-66
2022/01/27 06:15:03;;;;;;;46.95;20.10;;;;;;;;;;10309802;28;20050;-65
2022/01/27 06:20:07;;;;;;;49.97;21.13;;;;;;;;;;10308131;28;20266;-65
2022/01/27 06:25:13;;;;;;;46.10;20.65;;;;;;;;;;10312951;28;20043;-65
2022/01/27 06:30:16;;;;;;;49.65;21.17;;;;;;;;;;10327610;28;20361;-66
2022/01/27 06:35:18;;;;;;;49.15;22.08;;;;;;;;;;10313893;28;20055;-64
2022/01/27 06:40:22;;;;;;;49.75;21.90;;;;;;;;;;10312315;28;20058;-65
2022/01/27 06:45:24;;;;;;;51.33;22.00;;;;;;;;;;10309777;28;20442;-65
2022/01/27 06:50:27;;;;;;;53.85;21.10;;;;;;;;;;10311477;28;20062;-65
2022/01/27 06:55:31;;;;;;;52.30;21.52;;;;;;;;;;10312619;28;20043;-66
2022/01/27 07:00:34;;;;;;;54.85;21.85;;;;;;;;;;10311521;28;20246;-66
2022/01/27 07:05:37;;;;;;;56.97;22.25;;;;;;;;;;10312448;28;20334;-65
2022/01/27 07:10:41;;;;;;;50.05;20.58;;;;;;;;;;10312320;28;20266;-67
2022/01/27 07:15:47;;;;;;;51.08;20.50;;;;;;;;;;10311605;28;20050;-69
2022/01/27 07:20:49;;;;;;;43.05;18.83;;;;;;;;;;10325317;28;20330;-66
2022/01/27 07:25:53;;;;;;;49.97;19.50;;;;;;;;;;10310567;28;20051;-66
2022/01/27 07:30:55;;;;;;;37.22;17.63;;;;;;;;;;10311431;28;20207;-66
2022/01/27 07:35:57;;;;;;;39.63;17.88;;;;;;;;;;10311790;28;20077;-68
2022/01/27 07:41:02;;;;;;;32.42;15.32;;;;;;;;;;10309944;28;20058;-67
2022/01/27 07:46:05;;;;;;;31.30;15.15;;;;;;;;;;10298444;28;20042;-67
2022/01/27 07:51:08;;;;;;;25.88;13.85;;;;;;;;;;10309304;28;20047;-67
2022/01/27 07:56:11;;;;;;;29.60;13.82;;;;;;;;;;10310720;28;20051;-67
2022/01/27 08:01:14;;;;;;;26.75;12.93;;;;;;;;;;10310226;28;20050;-68
2022/01/27 08:06:16;;;;;;;20.73;11.40;;;;;;;;;;10310250;28;20242;-66
2022/01/27 08:11:20;;;;;;;26.20;13.80;;;;;;;;;;10309800;28;20326;-65
2022/01/27 08:16:22;;;;;;;21.92;12.48;;;;;;;;;;10309660;28;20038;-65
2022/01/27 08:21:25;;;;;;;22.40;13.63;;;;;;;;;;10310032;28;20061;-68
2022/01/27 08:26:36;;;;;;;22.38;13.38;;;;;;;;;;10310605;28;20050;-66
2022/01/27 08:32:01;;;;;;;26.38;14.63;;;;;;;;;;10310192;28;20055;-68
2022/01/27 08:37:12;;;;;;;25.83;14.98;;;;;;;;;;10314702;28;20049;-68
2022/01/27 08:42:20;;;;;;;29.13;16.60;;;;;;;;;;10317002;28;20162;-65
2022/01/27 08:47:23;;;;;;;31.77;16.17;;;;;;;;;;10315987;28;20165;-68
2022/01/27 08:52:25;;;;;;;28.75;15.45;;;;;;;;;;10277469;28;20296;-67
2022/01/27 08:57:29;;;;;;;34.15;17.05;;;;;;;;;;10314566;28;20134;-65
2022/01/27 09:02:32;;;;;;;34.10;17.55;;;;;;;;;;10314920;28;20058;-67
2022/01/27 09:07:36;;;;;;;33.80;16.60;;;;;;;;;;10315306;28;20043;-68
2022/01/27 09:12:53;;;;;;;34.70;16.85;;;;;;;;;;10312652;28;20282;-70
2022/01/27 09:18:10;;;;;;;34.30;16.85;;;;;;;;;;10313639;28;20067;-66
2022/01/27 09:23:15;;;;;;;35.53;15.98;;;;;;;;;;10315775;28;20267;-65
2022/01/27 09:28:19;;;;;;;27.60;14.45;;;;;;;;;;10316582;28;20330;-66
2022/01/27 09:33:21;;;;;;;31.25;15.02;;;;;;;;;;10306684;28;20051;-68
2022/01/27 09:38:24;;;;;;;25.15;12.75;;;;;;;;;;10312318;28;20118;-68
2022/01/27 09:43:28;;;;;;;20.73;11.00;;;;;;;;;;10315890;28;20066;-68
2022/01/27 09:48:36;;;;;;;19.90;9.63;;;;;;;;;;10315272;28;20054;-67
2022/01/27 09:53:39;;;;;;;17.98;9.52;;;;;;;;;;10313644;28;20058;-68
2022/01/27 09:58:42;;;;;;;13.35;8.50;;;;;;;;;;10314939;28;20062;-67
2022/01/27 10:03:55;;;;;;;15.07;8.40;;;;;;;;;;10313891;28;20058;-69
2022/01/27 10:09:16;;;;;;;14.38;8.65;;;;;;;;;;10314411;28;20101;-67
2022/01/27 10:14:25;;;;;;;18.25;8.95;;;;;;;;;;10314536;28;20494;-68
2022/01/27 10:19:27;;;;;;;17.27;9.45;;;;;;;;;;10327825;28;20043;-67
2022/01/27 10:24:32;;;;;;;21.52;11.70;;;;;;;;;;10308457;28;20043;-66
2022/01/27 10:29:50;;;;;;;21.27;10.35;;;;;;;;;;10314510;28;20046;-68
2022/01/27 10:34:56;;;;;;;19.23;9.82;;;;;;;;;;10324645;28;20043;-67
2022/01/27 10:39:59;;;;;;;21.45;10.35;;;;;;;;;;10313275;28;20063;-67
2022/01/27 10:45:07;;;;;;;18.80;9.85;;;;;;;;;;10312735;28;20065;-67
2022/01/27 10:50:11;;;;;;;20.63;11.35;;;;;;;;;;10326307;28;20093;-67
2022/01/27 10:55:17;;;;;;;26.45;12.55;;;;;;;;;;10312152;28;20050;-68
2022/01/27 11:00:23;;;;;;;21.88;11.98;;;;;;;;;;10311599;28;20051;-67
2022/01/27 11:05:28;;;;;;;22.63;11.73;;;;;;;;;;10290108;28;20238;-66
2022/01/27 11:10:30;;;;;;;22.30;12.83;;;;;;;;;;10312490;28;20253;-67
2022/01/27 11:15:34;;;;;;;19.52;11.43;;;;;;;;;;10311711;28;20298;-66
2022/01/27 11:20:50;;;;;;;21.95;12.75;;;;;;;;;;10311431;28;20045;-67
2022/01/27 11:25:54;;;;;;;;;;;;;;;;;;10326200;28;20042;-65
2022/01/27 11:31:11;;;;;;;26.05;13.48;;;;;;;;;;10311501;28;20225;-67
2022/01/27 11:36:19;;;;;;;21.65;12.07;;;;;;;;;;10311097;28;20064;-68
2022/01/27 11:41:53;;;;;;;18.30;12.15;;;;;;;;;;10184304;28;22006;-67
2022/01/27 11:47:20;;;;;;;26.60;14.52;;;;;;;;;;10233999;28;20054;-66
2022/01/27 11:52:26;;;;;;;28.33;14.77;;;;;;;;;;10308768;28;20316;-66
2022/01/27 11:57:40;;;;;;;26.23;15.68;;;;;;;;;;10322370;28;20050;-67
2022/01/27 12:03:13;;;;;;;25.85;14.65;;;;;;;;;;10269377;28;20058;-67
2022/01/27 12:08:23;;;;;;;23.70;12.52;;;;;;;;;;10284979;28;20055;-67
2022/01/27 12:13:55;;;;;;;25.92;14.05;;;;;;;;;;10307215;28;20047;-68
2022/01/27 12:19:00;;;;;;;27.98;15.38;;;;;;;;;;10302989;28;20404;-66
2022/01/27 12:24:18;;;;;;;22.33;13.65;;;;;;;;;;10323161;28;20050;-66
2022/01/27 12:29:29;;;;;;;27.20;13.95;;;;;;;;;;10323257;28;20074;-65
2022/01/27 12:34:35;;;;;;;25.27;14.75;;;;;;;;;;10322267;28;20050;-66
2022/01/27 12:39:40;;;;;;;26.38;14.63;;;;;;;;;;10315413;28;20235;-66
2022/01/27 12:44:54;;;;;;;24.58;14.80;;;;;;;;;;10309407;28;20046;-68
2022/01/27 12:50:06;;;;;;;26.50;14.88;;;;;;;;;;10320965;28;20042;-68
2022/01/27 12:55:10;;;;;;;30.70;16.10;;;;;;;;;;10323638;28;20054;-68
2022/01/27 13:00:14;;;;;;;25.20;15.48;;;;;;;;;;10309026;28;20047;-65
2022/01/27 13:05:18;;;;;;;25.45;15.02;;;;;;;;;;10308575;28;20046;-66
2022/01/27 13:10:20;;;;;;;27.55;15.60;;;;;;;;;;10307778;28;20348;-67
2022/01/27 13:15:26;;;;;;;31.27;16.40;;;;;;;;;;10306598;28;20374;-66
2022/01/27 13:20:33;;;;;;;;;;;;;;;;;;10322488;28;20094;-69
2022/01/27 13:25:41;;;;;;;28.55;16.23;;;;;;;;;;10312464;28;19924;-67
2022/01/27 13:30:45;;;;;;;31.23;15.10;;;;;;;;;;10328753;28;20085;-65
2022/01/27 13:35:50;;;;;;;31.60;17.17;;;;;;;;;;10315600;28;20058;-69
2022/01/27 13:41:20;;;;;;;32.53;17.47;;;;;;;;;;10313925;28;20055;-65
2022/01/27 13:46:41;;;;;;;31.45;16.52;;;;;;;;;;10275579;28;20114;-68
2022/01/27 13:51:51;;;;;;;28.50;16.10;;;;;;;;;;10302684;28;20047;-68
2022/01/27 13:56:54;;;;;;;26.92;16.27;;;;;;;;;;10327928;28;20392;-67
2022/01/27 14:02:15;;;;;;;27.30;16.35;;;;;;;;;;10314299;28;20115;-68
2022/01/27 14:07:30;;;;;;;30.35;17.13;;;;;;;;;;10327112;28;20043;-68
2022/01/27 14:12:46;;;;;;;30.15;16.98;;;;;;;;;;10327993;28;20061;-66
2022/01/27 14:17:57;;;;;;;26.85;16.02;;;;;;;;;;10326944;28;20121;-66
2022/01/27 14:23:19;;;;;;;30.85;16.15;;;;;;;;;;10327114;28;20080;-67
2022/01/27 14:28:21;;;;;;;26.38;16.10;;;;;;;;;;10325820;28;20222;-67
2022/01/27 14:33:23;;;;;;;30.50;17.23;;;;;;;;;;10312572;28;20074;-67
2022/01/27 14:38:27;;;;;;;28.45;16.48;;;;;;;;;;10311880;28;20063;-68
2022/01/27 14:43:31;;;;;;;34.78;17.83;;;;;;;;;;10312486;28;20061;-67
2022/01/27 14:48:36;;;;;;;29.40;17.23;;;;;;;;;;10296759;28;20050;-66
2022/01/27 14:53:41;;;;;;;30.15;17.23;;;;;;;;;;10312453;28;20031;-66
2022/01/27 14:58:43;;;;;;;27.48;16.65;;;;;;;;;;10311700;28;20340;-67
2022/01/27 15:03:45;;;;;;;29.23;16.30;;;;;;;;;;10312582;28;20038;-67
2022/01/27 15:08:51;;;;;;;27.42;14.95;;;;;;;;;;10312688;28;20274;-69
2022/01/27 15:14:01;;;;;;;31.45;17.90;;;;;;;;;;10324708;28;20051;-67
2022/01/27 15:19:20;;;;;;;25.38;15.18;;;;;;;;;;10324765;28;20054;-67
2022/01/27 15:24:27;;;;;;;31.55;17.45;;;;;;;;;;10323318;28;20035;-66
2022/01/27 15:29:32;;;;;;;29.92;16.40;;;;;;;;;;10323169;28;20054;-66
2022/01/27 15:34:35;;;;;;;28.37;16.30;;;;;;;;;;10311354;28;20047;-66
2022/01/27 15:39:45;;;;;;;24.30;14.75;;;;;;;;;;10311341;28;20059;-67
2022/01/27 15:44:48;;;;;;;27.90;15.75;;;;;;;;;;10323619;28;20047;-65
2022/01/27 15:49:50;;;;;;;31.48;16.40;;;;;;;;;;10310577;28;20058;-67
2022/01/27 15:54:54;;;;;;;31.55;16.98;;;;;;;;;;10311653;28;20356;-66
2022/01/27 15:59:57;;;;;;;33.25;17.25;;;;;;;;;;10310917;28;20047;-67
2022/01/27 16:04:59;;;;;;;29.48;15.43;;;;;;;;;;10311521;28;20081;-68
2022/01/27 16:10:04;;;;;;;30.98;18.00;;;;;;;;;;10311625;28;20093;-67
2022/01/27 16:15:07;;;;;;;37.13;18.17;;;;;;;;;;10308890;28;20035;-66
2022/01/27 16:20:13;;;;;;;32.92;17.13;;;;;;;;;;10311587;28;20054;-67
2022/01/27 16:25:16;;;;;;;37.35;17.83;;;;;;;;;;10311230;28;20066;-67
2022/01/27 16:30:20;;;;;;;30.38;16.05;;;;;;;;;;10311038;28;20061;-67
2022/01/27 16:35:23;;;;;;;35.00;15.75;;;;;;;;;;10310534;28;20432;-67
2022/01/27 16:40:28;;;;;;;26.77;14.23;;;;;;;;;;10310309;28;20059;-67
2022/01/27 16:45:31;;;;;;;25.92;14.43;;;;;;;;;;10324438;28;20078;-67
2022/01/27 16:50:33;;;;;;;26.77;14.20;;;;;;;;;;10310303;28;20066;-67
2022/01/27 16:55:37;;;;;;;26.38;13.77;;;;;;;;;;10311143;28;20043;-68
2022/01/27 17:00:40;;;;;;;35.95;16.02;;;;;;;;;;10316558;28;20058;-67
2022/01/27 17:05:42;;;;;;;32.65;16.30;;;;;;;;;;10319429;28;20043;-68
2022/01/27 17:10:46;;;;;;;35.97;15.68;;;;;;;;;;10300464;28;20401;-69
2022/01/27 17:15:49;;;;;;;33.10;17.33;;;;;;;;;;10318241;28;20045;-69
2022/01/27 17:20:52;;;;;;;34.33;17.17;;;;;;;;;;10318501;28;20071;-67
2022/01/27 17:25:55;;;;;;;32.25;17.02;;;;;;;;;;10318215;28;20058;-67
2022/01/27 17:30:58;;;;;;;30.67;17.50;;;;;;;;;;10318941;28;20055;-68
2022/01/27 17:36:01;;;;;;;33.20;15.20;;;;;;;;;;10317666;28;20057;-67
2022/01/27 17:41:11;;;;;;;27.77;15.38;;;;;;;;;;10317366;28;20062;-67
2022/01/27 17:46:15;;;;;;;29.23;15.18;;;;;;;;;;10318734;28;20081;-69
2022/01/27 17:51:17;;;;;;;32.58;15.45;;;;;;;;;;10317809;28;20065;-68
2022/01/27 17:56:21;;;;;;;32.35;15.55;;;;;;;;;;10317578;28;20058;-67
2022/01/27 18:01:23;;;;;;;31.15;15.68;;;;;;;;;;10316818;28;20073;-66
2022/01/27 18:06:27;;;;;;;30.35;13.95;;;;;;;;;;10316057;28;20050;-68
2022/01/27 18:11:32;;;;;;;26.92;14.50;;;;;;;;;;10316431;28;20050;-68
2022/01/27 18:16:35;;;;;;;25.27;12.80;;;;;;;;;;10328772;28;20050;-68
2022/01/27 18:21:37;;;;;;;26.45;13.25;;;;;;;;;;10314300;28;20054;-69
2022/01/27 18:26:41;;;;;;;45.67;16.33;;;;;;;;;;10311277;28;20043;-67
2022/01/27 18:31:43;;;;;;;37.78;17.30;;;;;;;;;;10314747;28;20051;-68
2022/01/27 18:36:46;;;;;;;38.45;18.23;;;;;;;;;;10314131;28;20459;-67
2022/01/27 18:41:51;;;;;;;37.50;18.45;;;;;;;;;;10313868;28;20063;-68
2022/01/27 18:46:53;;;;;;;43.33;18.02;;;;;;;;;;10313808;28;20085;-68
2022/01/27 18:51:55;;;;;;;35.15;15.70;;;;;;;;;;10311881;28;20061;-68
2022/01/27 18:57:02;;;;;;;23.80;13.80;;;;;;;;;;10312414;28;20042;-67
2022/01/27 19:02:05;;;;;;;29.63;15.50;;;;;;;;;;10326281;28;20046;-66
2022/01/27 19:07:08;;;;;;;33.15;14.98;;;;;;;;;;10307649;28;20077;-68
2022/01/27 19:12:12;;;;;;;29.20;14.68;;;;;;;;;;10295921;28;20055;-67
2022/01/27 19:17:15;;;;;;;29.38;15.27;;;;;;;;;;10312569;28;20043;-66
2022/01/27 19:22:17;;;;;;;29.95;15.55;;;;;;;;;;10312229;28;20058;-69
2022/01/27 19:27:23;;;;;;;27.05;15.40;;;;;;;;;;10311966;28;20334;-68
2022/01/27 19:32:26;;;;;;;29.70;14.85;;;;;;;;;;10325816;28;20069;-69
2022/01/27 19:37:29;;;;;;;33.47;16.33;;;;;;;;;;10305077;28;20035;-68
2022/01/27 19:42:33;;;;;;;32.67;15.85;;;;;;;;;;10308212;28;20062;-68
2022/01/27 19:47:35;;;;;;;30.90;15.23;;;;;;;;;;10311858;28;20050;-67
2022/01/27 19:52:37;;;;;;;26.88;15.35;;;;;;;;;;10311549;28;20051;-68
2022/01/27 19:57:41;;;;;;;33.88;15.18;;;;;;;;;;10311246;28;20047;-69
2022/01/27 20:02:45;;;;;;;24.70;13.73;;;;;;;;;;10308974;28;20054;-69
2022/01/27 20:07:52;;;;;;;29.48;14.00;;;;;;;;;;10303649;28;20054;-68
2022/01/27 20:12:59;;;;;;;30.20;14.90;;;;;;;;;;10305394;28;20101;-67
2022/01/27 20:18:02;;;;;;;33.58;14.25;;;;;;;;;;10303786;28;20050;-68
2022/01/27 20:23:07;;;;;;;28.00;14.68;;;;;;;;;;10283160;28;20055;-67
2022/01/27 20:28:11;;;;;;;26.42;12.98;;;;;;;;;;10312322;28;20043;-69
2022/01/27 20:33:14;;;;;;;23.65;12.38;;;;;;;;;;10289231;28;20045;-68
2022/01/27 20:38:16;;;;;;;30.13;12.20;;;;;;;;;;10309753;28;20112;-68
2022/01/27 20:43:21;;;;;;;22.35;11.20;;;;;;;;;;10317969;28;20234;-68
2022/01/27 20:48:25;;;;;;;21.92;10.95;;;;;;;;;;10313996;28;20062;-67
2022/01/27 20:53:28;;;;;;;21.33;11.00;;;;;;;;;;10315297;28;20093;-68
2022/01/27 20:58:31;;;;;;;21.45;12.05;;;;;;;;;;10316280;28;20168;-66
2022/01/27 21:03:35;;;;;;;20.10;10.35;;;;;;;;;;10294173;28;20151;-67
2022/01/27 21:08:39;;;;;;;25.88;11.82;;;;;;;;;;10317110;28;20051;-67
2022/01/27 21:13:44;;;;;;;25.08;10.32;;;;;;;;;;10316533;28;20050;-69
2022/01/27 21:18:46;;;;;;;26.67;10.95;;;;;;;;;;10313316;28;20051;-69
2022/01/27 21:23:48;;;;;;;21.67;10.32;;;;;;;;;;10302752;28;20338;-69
2022/01/27 21:28:52;;;;;;;23.67;9.85;;;;;;;;;;10314607;28;20229;-68
2022/01/27 21:33:58;;;;;;;25.45;11.23;;;;;;;;;;10311188;28;20047;-67
2022/01/27 21:39:00;;;;;;;;;;;;;;;;;;10324435;28;20071;-67
2022/01/27 21:44:05;;;;;;;18.05;8.18;;;;;;;;;;10312104;28;20221;-68
2022/01/27 21:49:07;;;;;;;18.10;7.40;;;;;;;;;;10314714;28;20042;-67
2022/01/27 21:54:09;;;;;;;24.85;7.70;;;;;;;;;;10314346;28;20059;-68
2022/01/27 21:59:13;;;;;;;20.55;5.57;;;;;;;;;;10314214;28;20047;-66
2022/01/27 22:04:16;;;;;;;26.73;7.10;;;;;;;;;;10311705;28;20046;-66
2022/01/27 22:09:18;;;;;;;20.60;5.68;;;;;;;;;;10313240;28;20050;-66
2022/01/27 22:14:22;;;;;;;13.55;4.72;;;;;;;;;;10302686;28;20094;-68
2022/01/27 22:19:25;;;;;;;22.92;5.20;;;;;;;;;;10304915;28;20089;-69
2022/01/27 22:24:28;;;;;;;18.80;5.20;;;;;;;;;;10307952;28;20047;-69
2022/01/27 22:29:31;;;;;;;16.08;4.88;;;;;;;;;;10314118;28;20349;-66
2022/01/27 22:34:34;;;;;;;20.08;5.50;;;;;;;;;;10314048;28;20062;-69
2022/01/27 22:39:37;;;;;;;18.85;5.55;;;;;;;;;;10314066;28;20093;-66
2022/01/27 22:44:42;;;;;;;17.50;5.10;;;;;;;;;;10312335;28;20050;-66
2022/01/27 22:49:44;;;;;;;14.88;4.60;;;;;;;;;;10314613;28;20050;-69
2022/01/27 22:54:47;;;;;;;20.33;4.90;;;;;;;;;;10313541;28;20345;-69
2022/01/27 22:59:50;;;;;;;16.55;6.05;;;;;;;;;;10311121;28;20055;-68
2022/01/27 23:04:53;;;;;;;19.23;5.25;;;;;;;;;;10313066;28;20073;-68
2022/01/27 23:09:55;;;;;;;12.70;3.65;;;;;;;;;;10313185;28;20050;-67
2022/01/27 23:15:13;;;;;;;12.70;3.60;;;;;;;;;;10312232;28;20069;-68
2022/01/27 23:20:24;;;;;;;13.20;3.67;;;;;;;;;;10312776;28;20055;-67
2022/01/27 23:25:27;;;;;;;17.33;4.90;;;;;;;;;;10313493;28;20055;-66
2022/01/27 23:30:38;;;;;;;15.15;3.45;;;;;;;;;;10312189;28;20281;-68
2022/01/27 23:35:40;;;;;;;12.98;3.05;;;;;;;;;;10321581;28;20051;-68
2022/01/27 23:40:54;;;;;;;15.23;3.33;;;;;;;;;;10311538;28;20158;-67
2022/01/27 23:46:05;;;;;;;11.15;3.20;;;;;;;;;;10325405;28;20058;-67
2022/01/27 23:51:19;;;;;;;15.43;4.10;;;;;;;;;;10311135;28;20042;-66
2022/01/27 23:56:27;;;;;;;9.13;2.85;;;;;;;;;;10325340;28;20262;-68
